Time;durP1;ratioP1;P1;durP2;ratioP2;P2;SDS_P1;SDS_P2;PMS_P1;PMS_P2;Temp;Humidity;BMP_temperature;BMP_pressure;BME280_temperature;BME280_humidity;BME280_pressure;Samples;Min_cycle;Max_cycle;Signal;HPM_P1;HPM_P2
2021/12/15 00:02:15;;;;;;;58.45;25.83;;;;;;;-0.08;81.48;95775.47;4934778;29;20103;-82
2021/12/15 00:04:42;;;;;;;67.18;27.88;;;;;;;-0.04;81.63;95755.03;4948398;29;20040;-82
2021/12/15 00:07:08;;;;;;;61.40;26.48;;;;;;;0.21;81.38;95807.53;4944588;29;20051;-82
2021/12/15 00:09:34;;;;;;;63.53;27.45;;;;;;;-0.42;81.10;95708.53;4928444;29;20483;-82
2021/12/15 00:12:03;;;;;;;62.38;26.48;;;;;;;-0.37;81.18;95723.56;4948647;29;20058;-82
2021/12/15 00:14:29;;;;;;;60.67;27.00;;;;;;;-0.27;81.23;95733.66;4931655;29;20050;-82
2021/12/15 00:16:54;;;;;;;60.50;26.67;;;;;;;-0.36;81.25;95742.63;4933454;29;20048;-83
2021/12/15 00:19:20;;;;;;;59.42;26.08;;;;;;;-0.27;81.14;95738.88;4941937;29;20043;-82
2021/12/15 00:21:45;;;;;;;61.50;28.17;;;;;;;-0.34;81.60;95725.00;4950307;29;20538;-81
2021/12/15 00:24:11;;;;;;;57.25;26.67;;;;;;;-0.32;80.71;95762.91;4952597;29;20035;-83
2021/12/15 00:26:37;;;;;;;65.05;26.58;;;;;;;-1.05;81.19;95647.00;4952185;29;20035;-82
2021/12/15 00:29:06;;;;;;;63.47;27.20;;;;;;;0.16;81.70;95862.06;4950462;29;20040;-82
2021/12/15 00:31:32;;;;;;;60.17;26.85;;;;;;;0.06;81.53;95832.91;4950852;29;20121;-82
2021/12/15 00:33:59;;;;;;;67.28;28.23;;;;;;;-0.36;81.79;95766.88;4950861;29;20106;-82
2021/12/15 00:36:25;;;;;;;68.50;28.17;;;;;;;0.19;81.62;95844.22;4951507;29;20058;-82
2021/12/15 00:38:51;;;;;;;61.90;27.50;;;;;;;0.08;81.91;95829.09;4952276;28;20067;-82
2021/12/15 00:41:16;;;;;;;56.08;26.02;;;;;;;-0.09;81.74;95805.16;4955049;29;20047;-82
2021/12/15 00:43:42;;;;;;;61.97;27.38;;;;;;;0.25;82.06;95881.78;4955103;29;20538;-83
2021/12/15 00:46:08;;;;;;;58.63;25.23;;;;;;;0.03;81.88;95831.50;4954389;29;20039;-83
2021/12/15 00:48:35;;;;;;;57.03;26.35;;;;;;;-0.60;82.43;95780.34;4950990;29;20046;-83
2021/12/15 00:51:02;;;;;;;55.03;25.88;;;;;;;-0.53;82.22;95784.59;4952515;29;20369;-82
2021/12/15 00:53:29;;;;;;;61.83;26.98;;;;;;;-0.41;82.78;95790.91;4954298;29;20138;-83
2021/12/15 00:55:55;;;;;;;53.22;25.23;;;;;;;-0.17;82.69;95830.56;4938536;29;20078;-83
2021/12/15 00:58:20;;;;;;;59.70;26.73;;;;;;;-0.04;82.83;95869.75;4955824;29;20477;-82
2021/12/15 01:00:50;;;;;;;56.60;24.25;;;;;;;-0.26;82.02;95822.09;4955997;29;20470;-82
2021/12/15 01:03:16;;;;;;;55.15;26.42;;;;;;;-1.11;83.23;95679.00;4955017;29;20147;-81
2021/12/15 01:05:46;;;;;;;56.00;23.95;;;;;;;-0.90;82.48;95712.81;4955873;29;20046;-82
2021/12/15 01:08:21;;;;;;;53.97;23.95;;;;;;;-0.96;82.23;95682.34;4953528;29;20043;-83
2021/12/15 01:21:38;;;;;;;57.88;24.35;;;;;;;-0.43;82.67;95753.81;4956831;29;20506;-82
2021/12/15 01:24:05;;;;;;;55.72;24.45;;;;;;;-0.42;81.94;95759.84;4956857;29;20047;-82
2021/12/15 01:26:31;;;;;;;55.97;24.00;;;;;;;-1.05;81.40;95654.03;4955194;29;20101;-82
2021/12/15 01:28:57;;;;;;;55.28;24.55;;;;;;;-1.08;81.62;95655.22;4939641;29;20043;-82
2021/12/15 01:31:23;;;;;;;50.63;22.42;;;;;;;-0.06;80.88;95823.00;4955434;29;20412;-82
2021/12/15 01:33:48;;;;;;;47.50;22.00;;;;;;;-0.75;81.05;95733.56;4958272;29;20079;-83
2021/12/15 01:36:14;;;;;;;41.30;19.13;;;;;;;-0.40;80.11;95771.69;4956134;29;20036;-82
2021/12/15 01:38:42;;;;;;;49.97;23.20;;;;;;;-0.85;80.46;95684.44;4953967;29;20387;-82
2021/12/15 01:41:18;;;;;;;50.38;21.90;;;;;;;-0.89;80.57;95709.22;4937399;29;20047;-82
2021/12/15 01:49:17;;;;;;;44.17;20.67;;;;;;;-0.20;80.84;95808.28;4955197;28;20262;-82
2021/12/15 01:51:43;;;;;;;52.78;22.50;;;;;;;-0.26;80.72;95793.41;4954829;28;20430;-82
2021/12/15 01:54:10;;;;;;;47.90;21.10;;;;;;;-0.71;80.29;95724.38;4934527;29;20054;-82
2021/12/15 01:56:36;;;;;;;51.63;23.25;;;;;;;-0.11;80.98;95822.78;4950086;29;20046;-82
2021/12/15 01:59:03;;;;;;;50.78;21.35;;;;;;;-0.15;80.82;95795.47;4937744;29;20621;-82
2021/12/15 02:01:29;;;;;;;53.20;24.15;;;;;;;-0.65;80.61;95731.44;4937786;29;20043;-82
2021/12/15 02:03:56;;;;;;;49.83;22.77;;;;;;;-0.56;80.24;95758.94;4937575;29;20202;-82
2021/12/15 02:06:21;;;;;;;48.72;21.75;;;;;;;-0.96;80.49;95726.59;4955071;29;20046;-82
2021/12/15 02:08:48;;;;;;;52.97;23.17;;;;;;;-0.25;80.85;95808.06;4954722;29;20028;-82
2021/12/15 02:11:14;;;;;;;50.05;22.10;;;;;;;-0.20;80.50;95816.13;4967484;28;20369;-82
2021/12/15 02:13:40;;;;;;;48.45;22.25;;;;;;;-0.47;80.53;95799.50;4953819;29;20039;-82
2021/12/15 02:16:06;;;;;;;49.10;22.08;;;;;;;-1.51;81.20;95643.25;4954726;29;20044;-82
2021/12/15 02:18:36;;;;;;;47.20;21.55;;;;;;;-0.17;80.80;95870.50;4954458;29;20276;-82
2021/12/15 02:21:09;;;;;;;45.75;21.70;;;;;;;-0.60;80.93;95786.34;4953423;29;20556;-82
2021/12/15 02:23:43;;;;;;;54.30;22.50;;;;;;;-0.88;80.59;95736.88;4937296;29;20039;-82
2021/12/15 02:26:35;;;;;;;53.72;22.35;;;;;;;-0.23;81.56;95846.97;4955610;29;20027;-82
2021/12/15 02:29:02;;;;;;;53.03;22.75;;;;;;;-1.07;81.36;95714.09;4919646;29;20040;-82
2021/12/15 02:32:48;;;;;;;48.47;21.98;;;;;;;-0.34;81.29;95811.81;4954078;28;20035;-82
2021/12/15 02:37:17;;;;;;;58.40;22.08;;;;;;;-0.65;80.27;95765.28;4954077;29;20261;-82
2021/12/15 02:39:50;;;;;;;52.38;23.48;;;;;;;-0.13;80.42;95855.25;4952218;29;20035;-82
2021/12/15 02:42:16;;;;;;;51.40;22.38;;;;;;;-0.84;80.10;95753.72;4952567;29;20043;-82
2021/12/15 02:44:43;;;;;;;51.13;22.70;;;;;;;-0.16;80.72;95850.44;4953549;29;20047;-82
2021/12/15 02:47:20;;;;;;;53.15;23.17;;;;;;;-0.53;80.46;95802.03;4951461;29;20046;-82
2021/12/15 02:49:47;;;;;;;48.70;21.55;;;;;;;-0.19;80.37;95838.59;4952831;29;20145;-82
2021/12/15 02:52:13;;;;;;;46.35;21.40;;;;;;;-1.40;80.38;95680.00;4954248;29;20095;-82
2021/12/15 02:54:38;;;;;;;48.42;22.38;;;;;;;-0.23;80.10;95855.59;4957936;29;20432;-82
2021/12/15 02:57:10;;;;;;;46.40;21.33;;;;;;;-0.60;79.99;95806.41;4951588;29;20073;-82
2021/12/15 02:59:50;;;;;;;46.83;21.17;;;;;;;-0.28;79.92;95851.94;4958544;29;20054;-82
2021/12/15 03:02:58;;;;;;;47.70;20.88;;;;;;;-0.84;79.60;95771.94;4956724;28;20068;-83
2021/12/15 03:05:20;;;;;;;48.03;20.73;;;;;;;-0.60;79.49;95799.38;4956958;29;20039;-82
2021/12/15 03:16:02;;;;;;;45.15;20.40;;;;;;;-0.43;79.46;95863.25;4957503;29;20075;-82
2021/12/15 03:18:28;;;;;;;43.55;19.55;;;;;;;-0.60;79.18;95848.06;4940983;29;20057;-82
2021/12/15 03:21:02;;;;;;;44.72;20.42;;;;;;;-0.64;79.35;95828.63;4956846;29;20039;-83
2021/12/15 03:24:00;;;;;;;49.35;20.02;;;;;;;-0.45;78.59;95854.00;4972439;28;20047;-82
2021/12/15 03:26:36;;;;;;;44.55;19.65;;;;;;;-0.87;78.46;95800.97;4952769;28;20043;-82
2021/12/15 03:34:47;;;;;;;40.78;18.90;;;;;;;-0.84;78.15;95790.16;4957993;29;20049;-82
2021/12/15 03:39:47;;;;;;;39.80;16.92;;;;;;;-1.31;78.05;95715.31;4958769;29;20074;-83
2021/12/15 03:42:23;;;;;;;41.47;17.60;;;;;;;-1.06;77.06;95746.94;4957810;29;20505;-82
2021/12/15 03:44:49;;;;;;;39.20;17.70;;;;;;;-1.04;77.08;95754.56;4956971;29;20106;-82
2021/12/15 03:47:20;;;;;;;35.17;16.55;;;;;;;-0.67;77.64;95815.97;4956082;29;20035;-82
2021/12/15 03:49:46;;;;;;;41.65;17.17;;;;;;;-0.38;77.78;95865.28;4958278;29;20130;-82
2021/12/15 03:52:12;;;;;;;38.72;16.63;;;;;;;-0.68;78.06;95815.16;4958486;29;20067;-82
2021/12/15 03:54:38;;;;;;;38.50;18.15;;;;;;;-0.73;77.29;95798.47;4958258;29;20141;-83
2021/12/15 03:57:04;;;;;;;38.00;17.00;;;;;;;-1.09;77.85;95752.53;4958350;28;20043;-82
2021/12/15 03:59:33;;;;;;;35.28;16.58;;;;;;;-1.15;77.57;95757.69;4957738;29;20047;-82
2021/12/15 04:01:59;;;;;;;39.58;18.02;;;;;;;-1.20;78.49;95764.22;4970255;28;20039;-82
2021/12/15 04:04:24;;;;;;;34.92;17.23;;;;;;;-0.68;77.11;95838.59;4943171;29;20043;-82
2021/12/15 04:06:50;;;;;;;39.22;16.85;;;;;;;-0.32;77.55;95900.25;4954155;29;20420;-82
2021/12/15 04:09:16;;;;;;;34.53;16.00;;;;;;;-1.06;77.10;95798.19;4957369;29;20043;-82
2021/12/15 04:11:42;;;;;;;38.40;16.98;;;;;;;-1.24;77.84;95750.00;4957620;29;20110;-82
2021/12/15 04:14:11;;;;;;;41.42;17.27;;;;;;;-0.70;78.18;95861.44;4959745;28;20518;-82
2021/12/15 04:16:45;;;;;;;33.03;15.40;;;;;;;-0.42;77.70;95885.72;4962708;29;20083;-82
2021/12/15 04:19:20;;;;;;;40.17;16.73;;;;;;;-0.94;77.18;95836.56;4963294;29;20067;-82
2021/12/15 04:21:46;;;;;;;42.10;16.85;;;;;;;-1.02;78.17;95802.84;4962023;29;20669;-82
2021/12/15 04:24:14;;;;;;;43.78;18.95;;;;;;;-0.67;77.75;95853.22;4964235;29;20058;-82
2021/12/15 04:26:40;;;;;;;37.65;17.23;;;;;;;-1.00;77.59;95805.28;4960353;29;20040;-82
2021/12/15 04:29:06;;;;;;;41.40;17.08;;;;;;;-1.05;77.75;95794.59;4954574;29;20043;-82
2021/12/15 04:31:37;;;;;;;37.47;17.08;;;;;;;-1.27;77.34;95759.97;4956686;29;20119;-82
2021/12/15 04:34:08;;;;;;;34.83;15.90;;;;;;;-1.38;77.49;95771.69;4956557;29;20042;-82
2021/12/15 04:36:38;;;;;;;42.17;17.00;;;;;;;-1.08;77.53;95811.41;4961257;29;20310;-81
2021/12/15 04:39:07;;;;;;;37.47;15.65;;;;;;;-0.46;77.83;95933.97;4925758;29;20047;-82
2021/12/15 04:41:33;;;;;;;34.75;16.33;;;;;;;-1.63;77.66;95749.59;4943699;29;20039;-82
2021/12/15 04:44:01;;;;;;;45.00;19.77;;;;;;;-0.55;78.43;95913.47;4959445;29;20050;-81
2021/12/15 04:46:34;;;;;;;36.53;17.80;;;;;;;-0.91;77.89;95864.81;4960089;28;20115;-82
2021/12/15 04:49:01;;;;;;;43.08;18.17;;;;;;;-0.49;78.19;95895.28;4966446;28;20040;-82
2021/12/15 04:51:27;;;;;;;40.80;17.52;;;;;;;-0.82;77.37;95870.72;4950901;29;20047;-82
2021/12/15 04:53:53;;;;;;;43.17;18.23;;;;;;;-0.82;77.82;95858.50;4943112;29;20053;-81
2021/12/15 04:56:21;;;;;;;37.45;17.80;;;;;;;-1.11;77.14;95826.56;4956416;28;20039;-82
2021/12/15 04:58:48;;;;;;;36.00;17.60;;;;;;;-0.60;77.46;95905.38;4959824;28;20473;-82
2021/12/15 05:01:14;;;;;;;36.25;17.75;;;;;;;-0.75;77.99;95878.59;4950754;29;20043;-82
2021/12/15 05:03:41;;;;;;;44.10;18.38;;;;;;;-1.25;77.88;95795.22;4958352;28;20077;-82
2021/12/15 05:06:07;;;;;;;41.95;18.08;;;;;;;-0.43;77.54;95899.75;4961075;28;20569;-82
2021/12/15 05:08:34;;;;;;;34.55;18.15;;;;;;;-0.87;76.54;95862.66;4952507;28;20441;-82
2021/12/15 05:11:00;;;;;;;37.28;18.52;;;;;;;-0.62;77.17;95903.00;4958480;28;20126;-81
2021/12/15 05:13:27;;;;;;;43.90;17.92;;;;;;;-0.67;77.79;95912.34;4952750;28;20285;-82
2021/12/15 05:15:53;;;;;;;42.95;19.55;;;;;;;-1.26;77.40;95840.44;4934160;29;20035;-83
2021/12/15 05:18:18;;;;;;;39.35;19.25;;;;;;;-1.47;77.12;95808.38;4958054;28;20042;-82
2021/12/15 05:20:48;;;;;;;47.83;20.23;;;;;;;-0.96;77.75;95879.41;4959592;28;20138;-83
2021/12/15 05:23:16;;;;;;;43.20;21.27;;;;;;;-0.63;77.89;95917.00;4953646;28;20071;-83
2021/12/15 05:25:45;;;;;;;48.88;20.55;;;;;;;-0.58;77.81;95922.47;4951577;28;20066;-83
2021/12/15 05:28:11;;;;;;;45.22;20.52;;;;;;;-1.20;76.86;95824.09;4954877;28;20070;-83
2021/12/15 05:30:39;;;;;;;45.25;21.25;;;;;;;-1.60;77.52;95742.22;4951874;28;20043;-83
2021/12/15 05:33:10;;;;;;;42.60;19.63;;;;;;;-5.63;76.61;95181.41;4945726;28;20293;-83
2021/12/15 05:35:39;;;;;;;41.33;20.88;;;;;;;-0.52;76.66;95916.50;4963422;28;20051;-83
2021/12/15 05:38:09;;;;;;;41.53;20.27;;;;;;;-0.49;76.90;95923.16;4942373;28;20036;-81
2021/12/15 05:40:35;;;;;;;42.10;18.88;;;;;;;-1.65;76.60;95760.16;4946479;28;20054;-81
2021/12/15 05:43:03;;;;;;;46.47;19.85;;;;;;;-3.33;77.27;95471.31;4944204;28;20070;-81
2021/12/15 05:45:37;;;;;;;38.78;20.02;;;;;;;-3.95;76.63;95427.59;4941784;28;20043;-82
2021/12/15 05:48:05;;;;;;;43.30;18.77;;;;;;;-6.25;76.25;95044.75;4951598;28;20047;-82
2021/12/15 05:50:32;;;;;;;39.25;17.88;;;;;;;-5.78;76.02;95160.69;4945555;28;20523;-82
2021/12/15 05:53:01;;;;;;;44.70;20.00;;;;;;;-6.16;77.03;95074.69;4948581;28;20070;-82
2021/12/15 05:55:34;;;;;;;53.97;21.27;;;;;;;-1.54;76.52;95784.91;4931110;29;20082;-82
2021/12/15 05:58:01;;;;;;;44.20;20.42;;;;;;;-0.51;76.75;95912.91;4943853;28;20111;-82
2021/12/15 06:00:31;;;;;;;35.25;16.23;;;;;;;-0.98;76.49;95847.53;4948768;28;20343;-82
2021/12/15 06:02:57;;;;;;;34.90;16.40;;;;;;;-1.81;76.25;95738.78;4949737;28;20097;-83
2021/12/15 06:05:25;;;;;;;42.95;18.45;;;;;;;-0.90;76.24;95865.63;4949969;28;20035;-83
2021/12/15 06:07:53;;;;;;;31.88;17.05;;;;;;;-1.73;76.06;95765.47;4934209;29;20586;-81
2021/12/15 06:10:24;;;;;;;36.40;17.80;;;;;;;-0.88;76.31;95855.84;4947897;29;20057;-81
2021/12/15 06:12:50;;;;;;;32.22;15.63;;;;;;;-0.79;76.23;95904.22;4917228;29;20109;-81
2021/12/15 06:15:23;;;;;;;34.60;16.17;;;;;;;-0.57;76.02;95955.34;4935793;29;20624;-83
2021/12/15 06:18:00;;;;;;;36.88;17.48;;;;;;;-1.67;75.89;95764.75;4950133;28;20590;-82
2021/12/15 06:20:27;;;;;;;29.42;15.02;;;;;;;-0.80;76.02;95928.66;4931846;29;20060;-81
2021/12/15 06:22:54;;;;;;;34.47;16.00;;;;;;;-1.19;76.22;95850.94;4931876;29;20119;-82
2021/12/15 06:25:21;;;;;;;32.65;16.63;;;;;;;-1.28;76.10;95855.44;4947666;29;20047;-83
2021/12/15 06:27:47;;;;;;;28.52;14.55;;;;;;;-1.19;76.35;95858.72;4944762;29;20431;-83
2021/12/15 06:30:13;;;;;;;40.10;17.67;;;;;;;-0.70;75.94;95918.75;4942957;29;20177;-82
2021/12/15 06:32:39;;;;;;;35.25;17.10;;;;;;;-1.70;75.15;95787.72;4927736;29;20055;-82
2021/12/15 06:35:06;;;;;;;35.80;15.45;;;;;;;-1.62;75.75;95800.63;4928955;29;20066;-83
2021/12/15 06:37:32;;;;;;;35.22;16.10;;;;;;;-0.82;75.71;95936.63;4923934;28;20051;-83
2021/12/15 06:39:58;;;;;;;32.22;15.43;;;;;;;-1.82;75.40;95761.38;4942735;29;20090;-83
2021/12/15 06:42:23;;;;;;;31.98;15.73;;;;;;;-1.51;75.69;95828.75;4924458;29;20714;-82
2021/12/15 06:44:50;;;;;;;37.47;16.60;;;;;;;-1.62;76.45;95782.41;4925698;29;20138;-84
2021/12/15 06:58:17;;;;;;;38.50;16.10;;;;;;;-1.12;75.92;95874.41;4927643;29;20590;-83
2021/12/15 07:00:48;;;;;;;36.00;15.60;;;;;;;-0.49;76.52;95964.84;4942315;28;20157;-82
2021/12/15 07:03:14;;;;;;;27.17;15.10;;;;;;;-1.28;76.46;95878.84;4921033;29;20553;-81
2021/12/15 07:05:40;;;;;;;34.47;15.23;;;;;;;-0.53;76.17;95977.41;4921962;29;20275;-82
2021/12/15 07:08:08;;;;;;;37.35;15.35;;;;;;;-1.34;75.96;95850.16;4936949;29;20062;-82
2021/12/15 07:10:41;;;;;;;32.67;14.05;;;;;;;-0.94;76.34;95913.88;4924523;29;20159;-82
2021/12/15 07:13:08;;;;;;;33.88;14.15;;;;;;;-1.41;76.34;95825.88;4925634;29;20063;-82
2021/12/15 07:15:36;;;;;;;27.65;14.45;;;;;;;-0.53;76.43;95981.81;4924577;29;20056;-83
2021/12/15 07:18:06;;;;;;;29.45;13.70;;;;;;;-1.11;76.44;95908.09;4925960;29;20047;-82
2021/12/15 07:20:42;;;;;;;25.90;13.18;;;;;;;-0.53;76.42;95974.00;4949542;28;20452;-84
2021/12/15 07:23:13;;;;;;;31.50;14.75;;;;;;;-0.52;76.06;95967.78;4921975;29;20055;-79
2021/12/15 07:25:41;;;;;;;32.90;13.57;;;;;;;-1.08;76.07;95896.50;4918284;29;20043;-81
2021/12/15 07:28:07;;;;;;;30.65;14.98;;;;;;;-1.04;76.46;95906.34;4921504;29;20118;-80
2021/12/15 07:30:35;;;;;;;27.40;14.38;;;;;;;-0.99;76.65;95885.78;4920819;29;20099;-80
2021/12/15 07:33:01;;;;;;;29.55;13.68;;;;;;;-1.18;76.31;95868.16;4941415;28;20047;-80
2021/12/15 07:35:27;;;;;;;31.85;15.38;;;;;;;-0.44;76.60;95981.53;4942773;28;20522;-80
2021/12/15 07:37:53;;;;;;;32.13;13.57;;;;;;;-1.35;75.83;95846.75;4935866;29;20436;-81
2021/12/15 07:40:21;;;;;;;27.90;13.90;;;;;;;-0.47;76.87;95976.69;4921921;29;20348;-80
2021/12/15 07:42:57;;;;;;;32.85;14.80;;;;;;;-0.70;76.06;95968.25;4924209;29;20048;-81
2021/12/15 07:45:26;;;;;;;36.20;15.35;;;;;;;-0.45;76.10;95994.72;4921672;29;20258;-80
2021/12/15 07:47:58;;;;;;;31.17;13.73;;;;;;;-1.21;76.29;95886.72;4937411;28;20150;-83
2021/12/15 07:50:25;;;;;;;34.50;14.30;;;;;;;-0.49;76.01;95998.72;4922987;29;20464;-80
2021/12/15 07:52:52;;;;;;;31.70;14.27;;;;;;;-1.26;76.47;95870.88;4934025;29;20512;-80
2021/12/15 07:55:19;;;;;;;27.90;13.18;;;;;;;-0.82;75.80;95951.47;4918946;29;21478;-81
2021/12/15 07:57:45;;;;;;;30.20;14.55;;;;;;;-0.63;76.52;95991.75;4933855;29;20575;-81
2021/12/15 08:00:12;;;;;;;33.13;14.05;;;;;;;-1.15;75.86;95906.03;4933167;29;20047;-80
2021/12/15 08:02:38;;;;;;;38.10;17.40;;;;;;;-2.02;76.40;95752.53;4930773;29;20048;-80
2021/12/15 08:05:05;;;;;;;29.55;13.88;;;;;;;-1.35;76.50;95901.38;4915484;29;20262;-80
2021/12/15 08:07:30;;;;;;;37.25;15.80;;;;;;;-0.53;75.90;96005.25;4916879;29;20166;-80
2021/12/15 08:09:56;;;;;;;26.25;14.55;;;;;;;-1.05;76.15;95922.97;4912616;29;20085;-80
2021/12/15 08:12:27;;;;;;;31.90;15.07;;;;;;;-0.52;75.82;96027.72;4930775;29;20048;-80
2021/12/15 08:14:54;;;;;;;;;;;;;;;-0.48;76.64;96010.75;4915215;29;20740;-80
2021/12/15 08:17:23;;;;;;;30.10;13.93;;;;;;;-1.06;76.00;95923.13;4935063;28;19991;-80
2021/12/15 08:19:48;;;;;;;39.20;16.08;;;;;;;-0.60;76.65;95996.56;4907234;29;20070;-79
2021/12/15 08:22:16;;;;;;;31.20;15.23;;;;;;;-0.67;76.38;95993.09;4929503;28;20051;-79
2021/12/15 08:24:42;;;;;;;37.17;15.60;;;;;;;-0.94;76.58;95943.31;4937105;28;20142;-81
2021/12/15 08:27:14;;;;;;;33.03;14.48;;;;;;;-1.39;75.92;95866.34;4936782;28;20115;-80
2021/12/15 08:29:39;;;;;;;;;;;;;;;-0.47;76.87;96015.78;4923454;29;20066;-80
2021/12/15 08:32:26;;;;;;;35.30;15.57;;;;;;;-1.76;76.47;95791.88;4927317;29;19923;-81
2021/12/15 08:34:52;;;;;;;32.63;15.80;;;;;;;-1.45;76.45;95850.66;4923102;29;20833;-80
2021/12/15 08:37:18;;;;;;;26.67;12.80;;;;;;;-0.50;76.37;96025.75;4928465;28;20058;-80
2021/12/15 08:39:47;;;;;;;29.77;15.02;;;;;;;-1.13;76.34;95933.47;4946308;28;20087;-81
2021/12/15 08:42:16;;;;;;;33.83;14.73;;;;;;;-1.15;76.65;95896.44;4931274;29;20282;-80
2021/12/15 08:45:06;;;;;;;27.52;14.52;;;;;;;-0.37;76.52;96033.69;4933446;29;20051;-80
2021/12/15 08:47:32;;;;;;;36.03;15.98;;;;;;;-1.01;76.41;95946.84;4929117;29;20043;-81
2021/12/15 08:50:07;;;;;;;31.90;13.60;;;;;;;-4.90;75.01;95312.66;4929854;29;20044;-79
2021/12/15 08:52:34;;;;;;;35.63;14.80;;;;;;;-0.83;76.46;95996.72;4924447;29;20047;-81
2021/12/15 08:54:59;;;;;;;27.45;14.85;;;;;;;-1.43;75.89;95911.09;4919597;29;20086;-80
2021/12/15 08:57:25;;;;;;;30.40;14.25;;;;;;;-3.33;75.56;95555.09;4920541;29;20240;-80
2021/12/15 08:59:50;;;;;;;35.65;15.02;;;;;;;-5.50;75.68;95213.47;4922836;29;20043;-80
2021/12/15 09:02:19;;;;;;;30.63;15.50;;;;;;;-2.88;75.81;95644.94;4926939;29;20047;-80
2021/12/15 09:04:45;;;;;;;32.38;15.85;;;;;;;-1.89;75.61;95828.06;4922218;29;20062;-81
2021/12/15 09:07:10;;;;;;;29.27;14.43;;;;;;;-1.42;76.16;95873.69;4946515;28;20527;-81
2021/12/15 09:09:36;;;;;;;29.75;13.38;;;;;;;-0.41;76.28;96033.28;4947186;28;20059;-81
2021/12/15 09:12:03;;;;;;;34.42;14.90;;;;;;;-1.21;75.56;95905.75;4924694;29;21210;-81
2021/12/15 09:14:29;;;;;;;42.00;16.55;;;;;;;-0.45;75.76;96011.16;4926506;28;20043;-79
2021/12/15 09:16:58;;;;;;;33.33;15.60;;;;;;;-1.66;76.05;95843.56;4923830;29;20040;-80
2021/12/15 09:19:30;;;;;;;33.70;16.20;;;;;;;-1.14;76.31;95915.47;4923471;29;20547;-80
2021/12/15 09:21:58;;;;;;;25.02;13.10;;;;;;;-0.52;75.72;96019.91;4939042;28;20048;-80
2021/12/15 09:24:25;;;;;;;32.20;14.52;;;;;;;-0.30;76.21;96045.00;4929942;29;20332;-81
2021/12/15 09:26:50;;;;;;;30.75;13.63;;;;;;;-1.00;76.41;95925.84;4942597;28;20320;-80
2021/12/15 09:29:17;;;;;;;30.75;14.35;;;;;;;-0.26;75.45;96040.25;4946251;28;20615;-80
2021/12/15 09:31:43;;;;;;;37.33;15.77;;;;;;;-1.23;75.92;95896.53;4930451;29;20058;-81
2021/12/15 09:34:13;;;;;;;33.47;14.65;;;;;;;-1.28;76.00;95868.44;4929070;29;20141;-80
2021/12/15 09:36:39;;;;;;;31.30;14.55;;;;;;;-0.73;76.08;95973.00;4944476;28;20280;-80
2021/12/15 09:39:11;;;;;;;31.35;14.98;;;;;;;-0.25;75.96;96027.03;4925736;29;20047;-80
2021/12/15 09:41:38;;;;;;;33.33;14.43;;;;;;;-0.16;75.95;96040.75;4923324;29;20222;-80
2021/12/15 09:44:07;;;;;;;31.80;15.77;;;;;;;-0.20;75.76;96047.31;4924124;29;20048;-81
2021/12/15 09:46:53;;;;;;;31.42;15.00;;;;;;;-1.30;76.41;95867.84;4942142;28;20130;-81
2021/12/15 10:03:12;;;;;;;36.00;14.48;;;;;;;-0.34;76.09;96037.75;4931416;29;20070;-80
2021/12/15 10:19:22;;;;;;;33.33;16.88;;;;;;;-1.11;76.89;95915.88;4911965;28;20073;-79
2021/12/15 10:22:17;;;;;;;37.38;19.23;;;;;;;-4.59;77.23;95334.06;4927263;28;20141;-80
2021/12/15 10:24:51;;;;;;;41.88;20.00;;;;;;;-0.76;77.31;95935.09;4931708;28;20577;-77
2021/12/15 10:27:36;;;;;;;44.25;19.80;;;;;;;-0.16;77.33;95996.44;4914133;29;20383;-78
2021/12/15 10:30:19;;;;;;;35.85;17.70;;;;;;;0.02;76.48;96009.00;4915609;28;20223;-77
2021/12/15 10:32:47;;;;;;;39.25;18.75;;;;;;;-0.46;77.13;95985.31;4926764;28;20043;-80
2021/12/15 10:35:24;;;;;;;44.58;18.88;;;;;;;-0.29;77.38;95991.88;4945906;28;20704;-80
2021/12/15 10:38:09;;;;;;;33.65;17.90;;;;;;;-0.19;78.10;96005.44;4936340;28;20043;-81
2021/12/15 10:40:44;;;;;;;33.30;15.88;;;;;;;-0.71;77.47;95947.56;4920964;29;20049;-79
2021/12/15 10:43:10;;;;;;;42.90;20.55;;;;;;;-0.76;77.88;95910.88;4933825;29;20043;-80
2021/12/15 10:45:40;;;;;;;38.80;19.13;;;;;;;-1.12;78.12;95879.63;4935519;28;20125;-80
2021/12/15 10:48:10;;;;;;;40.90;18.98;;;;;;;-0.53;77.46;95935.72;4921420;29;20470;-80
2021/12/15 10:50:41;;;;;;;42.85;20.67;;;;;;;-2.00;77.87;95681.19;4953813;28;20074;-80
2021/12/15 10:53:07;;;;;;;44.00;21.67;;;;;;;-0.57;77.72;95931.09;4919285;29;20066;-80
2021/12/15 10:55:37;;;;;;;46.65;20.48;;;;;;;-1.74;77.14;95735.25;4936554;28;20558;-80
2021/12/15 10:58:38;;;;;;;40.92;19.77;;;;;;;-0.04;77.85;96006.16;4935221;28;20049;-80
2021/12/15 11:01:24;;;;;;;41.50;19.80;;;;;;;-3.71;77.16;95481.75;4934962;28;20145;-80
2021/12/15 11:03:50;;;;;;;38.22;17.58;;;;;;;-0.16;78.25;96012.88;4938985;29;20329;-80
2021/12/15 11:06:32;;;;;;;39.65;18.67;;;;;;;-3.75;78.10;95433.06;4938546;28;20043;-81
2021/12/15 11:09:11;;;;;;;38.50;17.35;;;;;;;-1.70;78.05;95798.13;4943409;28;20256;-80
2021/12/15 11:11:37;;;;;;;35.70;18.17;;;;;;;-0.17;78.32;95998.22;4938607;28;20047;-80
2021/12/15 11:14:35;;;;;;;40.92;19.23;;;;;;;-0.88;78.48;95874.88;4937426;29;20461;-80
2021/12/15 11:17:15;;;;;;;40.28;19.38;;;;;;;-0.13;77.94;95994.25;4939360;28;20047;-81
2021/12/15 11:20:12;;;;;;;45.83;19.85;;;;;;;-0.06;78.33;95996.91;4931140;28;20226;-81
2021/12/15 11:22:50;;;;;;;42.83;21.23;;;;;;;0.04;77.99;95994.78;4914382;29;20325;-81
2021/12/15 11:25:24;;;;;;;42.30;20.92;;;;;;;0.06;77.74;95968.53;4914728;29;20587;-81
2021/12/15 11:27:55;;;;;;;43.33;19.92;;;;;;;-0.82;77.50;95849.88;4934024;29;20047;-80
2021/12/15 11:30:48;;;;;;;39.38;18.50;;;;;;;-1.07;77.29;95820.03;4912492;29;20486;-81
2021/12/15 11:33:21;;;;;;;47.80;21.77;;;;;;;-0.52;77.68;95903.47;4934521;28;20091;-81
2021/12/15 11:36:14;;;;;;;35.33;18.13;;;;;;;-1.03;76.72;95824.66;4913466;29;20044;-81
2021/12/15 11:39:16;;;;;;;39.83;18.98;;;;;;;-0.06;77.25;95960.41;4937181;28;20062;-81
2021/12/15 11:41:46;;;;;;;;;;;;;;;0.10;76.75;95994.03;4908800;29;20083;-82
2021/12/15 11:44:18;;;;;;;32.55;16.85;;;;;;;-0.05;76.71;95954.19;4941501;28;19950;-81
2021/12/15 11:46:53;;;;;;;37.03;18.83;;;;;;;-0.07;76.49;95956.19;4921935;29;20427;-81
2021/12/15 11:49:29;;;;;;;32.45;15.93;;;;;;;-0.56;76.53;95891.81;4941065;28;20048;-81
2021/12/15 11:52:01;;;;;;;33.03;15.48;;;;;;;-0.44;76.35;95885.09;4917841;29;20673;-81
2021/12/15 11:54:37;;;;;;;;;;;;;;;0.22;76.29;95982.13;4949968;28;20074;-80
2021/12/15 11:57:18;;;;;;;34.72;15.75;;;;;;;-0.32;76.28;95902.84;4936199;28;19990;-82
2021/12/15 11:59:50;;;;;;;37.58;16.52;;;;;;;-1.10;76.23;95791.75;4950617;28;20202;-81
2021/12/15 12:02:22;;;;;;;38.65;16.75;;;;;;;-0.33;76.26;95920.28;4918627;29;20051;-80
2021/12/15 12:04:56;;;;;;;28.95;15.20;;;;;;;0.19;76.50;95986.88;4937709;29;20055;-80
2021/12/15 12:07:39;;;;;;;37.70;16.50;;;;;;;0.24;76.48;95981.91;4940095;28;20044;-80
2021/12/15 12:10:21;;;;;;;30.95;16.42;;;;;;;0.22;76.45;95982.13;4920216;29;21181;-81
2021/12/15 12:12:56;;;;;;;30.90;16.52;;;;;;;-0.47;76.79;95877.69;4938296;29;20032;-81
2021/12/15 12:15:25;;;;;;;33.33;15.80;;;;;;;-0.35;76.67;95913.63;4933005;29;21124;-80
2021/12/15 12:17:53;;;;;;;34.10;17.17;;;;;;;-0.63;76.61;95857.09;4920439;29;20526;-80
2021/12/15 12:20:23;;;;;;;32.17;16.58;;;;;;;0.13;76.41;95985.03;4935236;29;20091;-80
2021/12/15 12:22:52;;;;;;;39.08;18.38;;;;;;;0.11;76.75;95980.00;4919643;29;20462;-80
2021/12/15 12:25:27;;;;;;;35.15;16.15;;;;;;;0.14;76.36;95974.44;4928958;29;20724;-81
2021/12/15 12:27:54;;;;;;;40.45;18.88;;;;;;;0.15;76.60;95973.44;4926951;29;20051;-81
2021/12/15 12:30:24;;;;;;;39.42;19.27;;;;;;;-0.22;76.44;95918.94;4943469;28;20516;-80
2021/12/15 12:32:51;;;;;;;40.40;19.58;;;;;;;0.15;76.06;95970.03;4920595;29;20086;-80
2021/12/15 12:35:21;;;;;;;42.00;19.27;;;;;;;-0.89;76.93;95799.56;4920082;29;20397;-80
2021/12/15 12:37:53;;;;;;;36.70;17.98;;;;;;;-0.03;76.06;95926.13;4936622;29;20376;-80
2021/12/15 12:40:26;;;;;;;39.80;19.10;;;;;;;-0.54;76.61;95855.97;4926153;29;20074;-81
2021/12/15 12:42:52;;;;;;;37.53;18.80;;;;;;;-0.22;76.77;95904.13;4942059;28;20052;-81
2021/12/15 12:45:37;;;;;;;36.22;17.45;;;;;;;0.22;76.41;95986.53;4925347;29;21155;-81
2021/12/15 12:59:27;;;;;;;47.45;21.45;;;;;;;0.11;77.28;95981.81;4922676;29;20090;-81